sensor_id;sensor_type;location;lat;lon;timestamp;temperature;humidity
70076;DHT22;63241;51.056;3.698;2023-03-14T00:00:27;10.40;99.90
70076;DHT22;63241;51.056;3.698;2023-03-14T00:02:54;10.30;99.90
70076;DHT22;63241;51.056;3.698;2023-03-14T00:08:55;10.30;99.90
70076;DHT22;63241;51.056;3.698;2023-03-14T00:11:23;10.20;99.90
70076;DHT22;63241;51.056;3.698;2023-03-14T00:13:52;10.20;99.90
70076;DHT22;63241;51.056;3.698;2023-03-14T00:16:20;10.20;99.90
70076;DHT22;63241;51.056;3.698;2023-03-14T00:19:07;10.20;99.90
70076;DHT22;63241;51.056;3.698;2023-03-14T00:24:34;10.30;99.90
70076;DHT22;63241;51.056;3.698;2023-03-14T00:27:01;10.20;99.90
70076;DHT22;63241;51.056;3.698;2023-03-14T00:29:29;10.20;99.90
70076;DHT22;63241;51.056;3.698;2023-03-14T00:31:57;10.10;99.90
70076;DHT22;63241;51.056;3.698;2023-03-14T00:38:16;10.10;99.90
70076;DHT22;63241;51.056;3.698;2023-03-14T00:40:44;10.10;99.90
70076;DHT22;63241;51.056;3.698;2023-03-14T00:43:11;10.20;99.90
70076;DHT22;63241;51.056;3.698;2023-03-14T00:45:39;10.20;99.90
70076;DHT22;63241;51.056;3.698;2023-03-14T00:54:09;10.20;99.90
70076;DHT22;63241;51.056;3.698;2023-03-14T00:56:37;10.10;99.90
70076;DHT22;63241;51.056;3.698;2023-03-14T00:59:05;10.10;99.90
70076;DHT22;63241;51.056;3.698;2023-03-14T01:05:05;10.20;99.90
70076;DHT22;63241;51.056;3.698;2023-03-14T01:07:33;10.20;99.90
70076;DHT22;63241;51.056;3.698;2023-03-14T01:10:02;10.20;99.90
70076;DHT22;63241;51.056;3.698;2023-03-14T01:12:30;10.20;99.90
70076;DHT22;63241;51.056;3.698;2023-03-14T01:20:38;10.30;99.90
70076;DHT22;63241;51.056;3.698;2023-03-14T01:23:06;10.30;99.90
70076;DHT22;63241;51.056;3.698;2023-03-14T01:25:34;10.30;99.90
70076;DHT22;63241;51.056;3.698;2023-03-14T01:28:25;10.20;99.90
70076;DHT22;63241;51.056;3.698;2023-03-14T01:31:16;10.20;99.90
70076;DHT22;63241;51.056;3.698;2023-03-14T01:33:45;10.20;99.90
70076;DHT22;63241;51.056;3.698;2023-03-14T01:36:13;10.10;99.90
70076;DHT22;63241;51.056;3.698;2023-03-14T01:38:42;10.10;99.90
70076;DHT22;63241;51.056;3.698;2023-03-14T01:44:59;10.10;99.90
70076;DHT22;63241;51.056;3.698;2023-03-14T01:47:21;10.00;99.90
70076;DHT22;63241;51.056;3.698;2023-03-14T01:50:12;10.00;99.90
70076;DHT22;63241;51.056;3.698;2023-03-14T01:58:29;10.10;99.90
70076;DHT22;63241;51.056;3.698;2023-03-14T02:01:02;10.30;99.90
70076;DHT22;63241;51.056;3.698;2023-03-14T02:03:31;10.30;99.90
70076;DHT22;63241;51.056;3.698;2023-03-14T02:06:03;10.40;99.90
70076;DHT22;63241;51.056;3.698;2023-03-14T02:11:46;10.50;99.90
70076;DHT22;63241;51.056;3.698;2023-03-14T02:14:26;10.50;99.90
70076;DHT22;63241;51.056;3.698;2023-03-14T02:16:53;10.50;99.90
70076;DHT22;63241;51.056;3.698;2023-03-14T02:19:26;10.60;99.90
70076;DHT22;63241;51.056;3.698;2023-03-14T02:25:47;10.60;99.90
70076;DHT22;63241;51.056;3.698;2023-03-14T02:28:16;10.60;99.90
70076;DHT22;63241;51.056;3.698;2023-03-14T02:30:44;10.60;99.90
70076;DHT22;63241;51.056;3.698;2023-03-14T02:33:19;10.50;99.90
70076;DHT22;63241;51.056;3.698;2023-03-14T02:39:21;10.60;99.90
70076;DHT22;63241;51.056;3.698;2023-03-14T02:41:49;10.50;99.90
70076;DHT22;63241;51.056;3.698;2023-03-14T02:44:16;10.30;99.90
70076;DHT22;63241;51.056;3.698;2023-03-14T02:46:44;10.20;99.90
70076;DHT22;63241;51.056;3.698;2023-03-14T02:49:27;10.10;99.90
70076;DHT22;63241;51.056;3.698;2023-03-14T02:52:32;10.00;99.90
70076;DHT22;63241;51.056;3.698;2023-03-14T02:55:00;10.00;99.90
70076;DHT22;63241;51.056;3.698;2023-03-14T02:57:28;9.90;99.90
70076;DHT22;63241;51.056;3.698;2023-03-14T03:00:00;10.00;99.90
70076;DHT22;63241;51.056;3.698;2023-03-14T03:06:15;10.10;99.90
70076;DHT22;63241;51.056;3.698;2023-03-14T03:08:43;10.10;99.90
70076;DHT22;63241;51.056;3.698;2023-03-14T03:11:11;10.20;99.90
70076;DHT22;63241;51.056;3.698;2023-03-14T03:13:39;10.10;99.90
70076;DHT22;63241;51.056;3.698;2023-03-14T03:19:53;10.20;99.90
70076;DHT22;63241;51.056;3.698;2023-03-14T03:22:21;10.30;99.90
70076;DHT22;63241;51.056;3.698;2023-03-14T03:24:49;10.30;99.90
70076;DHT22;63241;51.056;3.698;2023-03-14T03:27:16;10.30;99.90
70076;DHT22;63241;51.056;3.698;2023-03-14T03:33:11;10.30;99.90
70076;DHT22;63241;51.056;3.698;2023-03-14T03:35:44;10.30;99.90
70076;DHT22;63241;51.056;3.698;2023-03-14T03:38:12;10.40;99.90
70076;DHT22;63241;51.056;3.698;2023-03-14T03:41:04;10.40;99.90
70076;DHT22;63241;51.056;3.698;2023-03-14T03:43:32;10.50;99.90
70076;DHT22;63241;51.056;3.698;2023-03-14T03:46:04;10.50;99.90
70076;DHT22;63241;51.056;3.698;2023-03-14T03:48:32;10.50;99.90
70076;DHT22;63241;51.056;3.698;2023-03-14T03:51:06;10.60;99.90
70076;DHT22;63241;51.056;3.698;2023-03-14T03:53:57;10.60;99.90
70076;DHT22;63241;51.056;3.698;2023-03-14T03:56:25;10.60;99.90
70076;DHT22;63241;51.056;3.698;2023-03-14T03:58:53;10.60;99.90
70076;DHT22;63241;51.056;3.698;2023-03-14T04:01:20;10.70;99.90
70076;DHT22;63241;51.056;3.698;2023-03-14T04:07:33;10.80;99.90
70076;DHT22;63241;51.056;3.698;2023-03-14T04:10:00;10.70;99.90
70076;DHT22;63241;51.056;3.698;2023-03-14T04:12:28;10.70;99.90
70076;DHT22;63241;51.056;3.698;2023-03-14T04:14:56;10.60;99.90
70076;DHT22;63241;51.056;3.698;2023-03-14T04:17:57;10.70;99.90
70076;DHT22;63241;51.056;3.698;2023-03-14T04:20:57;10.70;99.90
70076;DHT22;63241;51.056;3.698;2023-03-14T04:23:18;10.60;99.90
70076;DHT22;63241;51.056;3.698;2023-03-14T04:25:46;10.60;99.90
70076;DHT22;63241;51.056;3.698;2023-03-14T04:28:14;10.60;99.90
70076;DHT22;63241;51.056;3.698;2023-03-14T04:30:58;10.60;99.90
70076;DHT22;63241;51.056;3.698;2023-03-14T04:36:48;10.60;99.90
70076;DHT22;63241;51.056;3.698;2023-03-14T04:39:16;10.60;99.90
70076;DHT22;63241;51.056;3.698;2023-03-14T04:41:44;10.60;99.90
70076;DHT22;63241;51.056;3.698;2023-03-14T04:44:12;10.60;99.90
70076;DHT22;63241;51.056;3.698;2023-03-14T04:46:59;10.60;99.90
70076;DHT22;63241;51.056;3.698;2023-03-14T04:50:10;10.70;99.90
70076;DHT22;63241;51.056;3.698;2023-03-14T04:52:38;10.70;99.90
70076;DHT22;63241;51.056;3.698;2023-03-14T04:55:05;10.80;99.90
70076;DHT22;63241;51.056;3.698;2023-03-14T04:57:33;10.80;99.90
70076;DHT22;63241;51.056;3.698;2023-03-14T05:03:50;10.90;99.90
70076;DHT22;63241;51.056;3.698;2023-03-14T05:06:18;10.90;99.90
70076;DHT22;63241;51.056;3.698;2023-03-14T05:08:46;10.90;99.90
70076;DHT22;63241;51.056;3.698;2023-03-14T05:11:14;10.90;99.90
70076;DHT22;63241;51.056;3.698;2023-03-14T05:17:33;10.80;99.90
70076;DHT22;63241;51.056;3.698;2023-03-14T05:20:02;10.80;99.90
70076;DHT22;63241;51.056;3.698;2023-03-14T05:22:31;10.70;99.90
70076;DHT22;63241;51.056;3.698;2023-03-14T05:24:59;10.60;99.90
70076;DHT22;63241;51.056;3.698;2023-03-14T05:31:21;10.50;99.90
70076;DHT22;63241;51.056;3.698;2023-03-14T05:33:48;10.40;99.90
70076;DHT22;63241;51.056;3.698;2023-03-14T05:36:16;10.40;99.90
70076;DHT22;63241;51.056;3.698;2023-03-14T05:38:44;10.40;99.90
70076;DHT22;63241;51.056;3.698;2023-03-14T05:41:32;10.40;99.90
70076;DHT22;63241;51.056;3.698;2023-03-14T05:44:31;10.40;99.90
70076;DHT22;63241;51.056;3.698;2023-03-14T05:46:58;10.10;99.90
70076;DHT22;63241;51.056;3.698;2023-03-14T05:49:26;9.90;99.90
70076;DHT22;63241;51.056;3.698;2023-03-14T05:51:54;9.70;99.90
70076;DHT22;63241;51.056;3.698;2023-03-14T05:57:48;9.50;99.90
70076;DHT22;63241;51.056;3.698;2023-03-14T06:00:16;9.50;99.90
70076;DHT22;63241;51.056;3.698;2023-03-14T06:02:44;9.40;99.90
70076;DHT22;63241;51.056;3.698;2023-03-14T06:05:12;9.40;99.90
70076;DHT22;63241;51.056;3.698;2023-03-14T06:11:29;9.30;99.90
70076;DHT22;63241;51.056;3.698;2023-03-14T06:13:58;9.20;99.90
70076;DHT22;63241;51.056;3.698;2023-03-14T06:16:25;9.10;99.90
70076;DHT22;63241;51.056;3.698;2023-03-14T06:18:53;9.00;99.90
70076;DHT22;63241;51.056;3.698;2023-03-14T06:21:59;8.90;99.90
70076;DHT22;63241;51.056;3.698;2023-03-14T06:24:51;8.80;99.90
70076;DHT22;63241;51.056;3.698;2023-03-14T06:27:19;8.80;99.90
70076;DHT22;63241;51.056;3.698;2023-03-14T06:29:46;8.70;99.90
70076;DHT22;63241;51.056;3.698;2023-03-14T06:32:14;8.70;99.90
70076;DHT22;63241;51.056;3.698;2023-03-14T06:38:09;8.60;99.90
70076;DHT22;63241;51.056;3.698;2023-03-14T06:40:37;8.60;99.90
70076;DHT22;63241;51.056;3.698;2023-03-14T06:43:04;8.60;99.90
70076;DHT22;63241;51.056;3.698;2023-03-14T06:45:32;8.60;99.90
70076;DHT22;63241;51.056;3.698;2023-03-14T06:48:22;8.60;99.90
70076;DHT22;63241;51.056;3.698;2023-03-14T06:51:13;8.50;99.90
70076;DHT22;63241;51.056;3.698;2023-03-14T06:53:40;8.50;99.90
70076;DHT22;63241;51.056;3.698;2023-03-14T06:56:08;8.50;99.90
70076;DHT22;63241;51.056;3.698;2023-03-14T06:58:36;8.60;99.90
70076;DHT22;63241;51.056;3.698;2023-03-14T07:04:32;8.50;99.90
70076;DHT22;63241;51.056;3.698;2023-03-14T07:07:00;8.50;99.90
70076;DHT22;63241;51.056;3.698;2023-03-14T07:09:28;8.50;99.90
70076;DHT22;63241;51.056;3.698;2023-03-14T07:11:56;8.50;99.90
70076;DHT22;63241;51.056;3.698;2023-03-14T07:18:12;8.50;99.90
70076;DHT22;63241;51.056;3.698;2023-03-14T07:20:39;8.50;99.90
70076;DHT22;63241;51.056;3.698;2023-03-14T07:23:07;8.50;99.90
70076;DHT22;63241;51.056;3.698;2023-03-14T07:25:35;8.50;99.90
70076;DHT22;63241;51.056;3.698;2023-03-14T07:28:13;8.60;99.90
70076;DHT22;63241;51.056;3.698;2023-03-14T07:30:53;8.60;99.90
70076;DHT22;63241;51.056;3.698;2023-03-14T07:33:49;8.50;99.90
70076;DHT22;63241;51.056;3.698;2023-03-14T07:36:17;8.50;99.90
70076;DHT22;63241;51.056;3.698;2023-03-14T07:38:45;8.50;99.90
70076;DHT22;63241;51.056;3.698;2023-03-14T07:41:13;8.50;99.90
70076;DHT22;63241;51.056;3.698;2023-03-14T07:43:57;8.50;99.90
70076;DHT22;63241;51.056;3.698;2023-03-14T07:46:58;8.50;99.90
70076;DHT22;63241;51.056;3.698;2023-03-14T07:49:26;8.20;99.90
70076;DHT22;63241;51.056;3.698;2023-03-14T07:51:54;8.10;99.90
70076;DHT22;63241;51.056;3.698;2023-03-14T07:54:21;8.10;99.90
70076;DHT22;63241;51.056;3.698;2023-03-14T08:03:00;8.10;99.90
70076;DHT22;63241;51.056;3.698;2023-03-14T08:05:28;8.10;99.90
70076;DHT22;63241;51.056;3.698;2023-03-14T08:07:56;8.20;99.90
70076;DHT22;63241;51.056;3.698;2023-03-14T08:10:43;8.20;99.90
70076;DHT22;63241;51.056;3.698;2023-03-14T08:13:38;8.20;99.90
70076;DHT22;63241;51.056;3.698;2023-03-14T08:16:07;8.20;99.90
70076;DHT22;63241;51.056;3.698;2023-03-14T08:18:34;8.20;99.90
70076;DHT22;63241;51.056;3.698;2023-03-14T08:21:02;8.10;99.90
70076;DHT22;63241;51.056;3.698;2023-03-14T08:23:40;8.10;99.90
70076;DHT22;63241;51.056;3.698;2023-03-14T08:26:23;8.10;99.90
70076;DHT22;63241;51.056;3.698;2023-03-14T08:28:51;8.20;99.90
70076;DHT22;63241;51.056;3.698;2023-03-14T08:31:19;8.20;99.90
70076;DHT22;63241;51.056;3.698;2023-03-14T08:33:47;8.30;99.90
70076;DHT22;63241;51.056;3.698;2023-03-14T08:40:14;8.40;99.90
70076;DHT22;63241;51.056;3.698;2023-03-14T08:42:43;8.40;99.90
70076;DHT22;63241;51.056;3.698;2023-03-14T08:45:13;8.70;99.90
70076;DHT22;63241;51.056;3.698;2023-03-14T08:47:41;8.90;99.90
70076;DHT22;63241;51.056;3.698;2023-03-14T08:56:14;8.70;99.90
70076;DHT22;63241;51.056;3.698;2023-03-14T08:58:42;8.60;99.90
70076;DHT22;63241;51.056;3.698;2023-03-14T09:01:10;8.50;99.90
70076;DHT22;63241;51.056;3.698;2023-03-14T09:04:00;8.50;99.90
70076;DHT22;63241;51.056;3.698;2023-03-14T09:09:37;8.50;99.90
70076;DHT22;63241;51.056;3.698;2023-03-14T09:12:05;8.40;99.90
70076;DHT22;63241;51.056;3.698;2023-03-14T09:14:33;8.50;99.90
70076;DHT22;63241;51.056;3.698;2023-03-14T09:17:00;8.50;99.90
70076;DHT22;63241;51.056;3.698;2023-03-14T09:22:55;8.60;99.90
70076;DHT22;63241;51.056;3.698;2023-03-14T09:25:23;8.70;99.90
70076;DHT22;63241;51.056;3.698;2023-03-14T09:27:50;8.80;99.90
70076;DHT22;63241;51.056;3.698;2023-03-14T09:30:18;8.80;99.90
70076;DHT22;63241;51.056;3.698;2023-03-14T09:33:21;8.60;99.90
70076;DHT22;63241;51.056;3.698;2023-03-14T09:35:59;8.60;99.90
70076;DHT22;63241;51.056;3.698;2023-03-14T09:38:27;8.50;99.90
70076;DHT22;63241;51.056;3.698;2023-03-14T09:40:55;8.60;99.90
70076;DHT22;63241;51.056;3.698;2023-03-14T09:43:26;8.70;99.90
70076;DHT22;63241;51.056;3.698;2023-03-14T09:49:29;8.60;99.90
70076;DHT22;63241;51.056;3.698;2023-03-14T09:52:00;8.50;99.90
70076;DHT22;63241;51.056;3.698;2023-03-14T09:54:50;8.40;99.90
70076;DHT22;63241;51.056;3.698;2023-03-14T09:57:17;8.30;99.90
70076;DHT22;63241;51.056;3.698;2023-03-14T10:03:48;8.10;99.90
70076;DHT22;63241;51.056;3.698;2023-03-14T10:14:11;8.00;99.90
70076;DHT22;63241;51.056;3.698;2023-03-14T10:16:44;8.10;99.90
70076;DHT22;63241;51.056;3.698;2023-03-14T10:19:14;8.10;99.90
70076;DHT22;63241;51.056;3.698;2023-03-14T10:21:52;8.10;99.90
70076;DHT22;63241;51.056;3.698;2023-03-14T10:25:05;8.20;99.90
70076;DHT22;63241;51.056;3.698;2023-03-14T10:27:32;8.20;99.90
70076;DHT22;63241;51.056;3.698;2023-03-14T10:30:04;8.00;99.90
70076;DHT22;63241;51.056;3.698;2023-03-14T10:32:38;8.10;99.90
70076;DHT22;63241;51.056;3.698;2023-03-14T10:38:32;8.20;99.90
70076;DHT22;63241;51.056;3.698;2023-03-14T10:41:24;8.30;99.90
70076;DHT22;63241;51.056;3.698;2023-03-14T10:43:56;8.20;99.90
70076;DHT22;63241;51.056;3.698;2023-03-14T10:46:26;8.20;99.90
70076;DHT22;63241;51.056;3.698;2023-03-14T10:49:06;8.20;99.90
70076;DHT22;63241;51.056;3.698;2023-03-14T10:52:09;8.20;99.90
70076;DHT22;63241;51.056;3.698;2023-03-14T10:54:30;8.00;99.90
70076;DHT22;63241;51.056;3.698;2023-03-14T10:56:59;7.90;99.90
70076;DHT22;63241;51.056;3.698;2023-03-14T10:59:31;7.90;99.90
70076;DHT22;63241;51.056;3.698;2023-03-14T11:08:23;8.50;99.90
70076;DHT22;63241;51.056;3.698;2023-03-14T11:10:53;8.80;99.90
70076;DHT22;63241;51.056;3.698;2023-03-14T11:13:26;9.20;99.90
70076;DHT22;63241;51.056;3.698;2023-03-14T11:22:20;10.50;99.90
70076;DHT22;63241;51.056;3.698;2023-03-14T11:27:36;11.30;99.90
70076;DHT22;63241;51.056;3.698;2023-03-14T11:30:24;11.40;99.90
70076;DHT22;63241;51.056;3.698;2023-03-14T11:33:21;11.10;99.90
70076;DHT22;63241;51.056;3.698;2023-03-14T11:35:53;10.90;99.90
70076;DHT22;63241;51.056;3.698;2023-03-14T11:40:56;10.90;99.90
70076;DHT22;63241;51.056;3.698;2023-03-14T11:43:28;10.90;99.90
70076;DHT22;63241;51.056;3.698;2023-03-14T11:46:08;10.50;99.90
70076;DHT22;63241;51.056;3.698;2023-03-14T11:48:41;10.20;99.90
70076;DHT22;63241;51.056;3.698;2023-03-14T11:51:14;10.00;99.90
70076;DHT22;63241;51.056;3.698;2023-03-14T11:56:22;9.80;99.90
70076;DHT22;63241;51.056;3.698;2023-03-14T11:58:55;9.70;99.90
70076;DHT22;63241;51.056;3.698;2023-03-14T12:01:21;9.60;99.90
70076;DHT22;63241;51.056;3.698;2023-03-14T12:04:02;9.80;99.90
70076;DHT22;63241;51.056;3.698;2023-03-14T12:06:50;10.10;99.90
70076;DHT22;63241;51.056;3.698;2023-03-14T12:09:20;10.50;99.90
70076;DHT22;63241;51.056;3.698;2023-03-14T12:11:56;10.90;99.90
70076;DHT22;63241;51.056;3.698;2023-03-14T12:14:30;10.70;99.90
70076;DHT22;63241;51.056;3.698;2023-03-14T12:17:07;10.10;99.90
70076;DHT22;63241;51.056;3.698;2023-03-14T12:19:37;10.00;99.90
70076;DHT22;63241;51.056;3.698;2023-03-14T12:22:15;9.80;99.90
70076;DHT22;63241;51.056;3.698;2023-03-14T12:24:50;9.70;99.90
70076;DHT22;63241;51.056;3.698;2023-03-14T12:27:41;9.70;99.90
70076;DHT22;63241;51.056;3.698;2023-03-14T12:30:18;9.70;99.90
70076;DHT22;63241;51.056;3.698;2023-03-14T12:35:40;10.00;99.90
70076;DHT22;63241;51.056;3.698;2023-03-14T12:38:16;10.20;99.90
70076;DHT22;63241;51.056;3.698;2023-03-14T12:41:01;10.00;99.90
70076;DHT22;63241;51.056;3.698;2023-03-14T12:46:07;9.70;99.90
70076;DHT22;63241;51.056;3.698;2023-03-14T12:48:36;9.30;99.90
70076;DHT22;63241;51.056;3.698;2023-03-14T12:51:16;9.10;99.90
70076;DHT22;63241;51.056;3.698;2023-03-14T12:56:45;8.90;99.90
70076;DHT22;63241;51.056;3.698;2023-03-14T13:01:59;8.60;99.90
70076;DHT22;63241;51.056;3.698;2023-03-14T13:04:43;8.60;99.90
70076;DHT22;63241;51.056;3.698;2023-03-14T13:07:03;8.30;99.90
70076;DHT22;63241;51.056;3.698;2023-03-14T13:12:16;8.60;99.90
70076;DHT22;63241;51.056;3.698;2023-03-14T13:14:47;9.00;99.90
70076;DHT22;63241;51.056;3.698;2023-03-14T13:17:19;9.50;99.90
70076;DHT22;63241;51.056;3.698;2023-03-14T13:19:50;9.80;99.90
70076;DHT22;63241;51.056;3.698;2023-03-14T13:22:26;10.00;99.90
70076;DHT22;63241;51.056;3.698;2023-03-14T13:24:49;10.00;99.90
70076;DHT22;63241;51.056;3.698;2023-03-14T13:27:21;10.20;99.90
70076;DHT22;63241;51.056;3.698;2023-03-14T13:29:50;10.10;99.90
70076;DHT22;63241;51.056;3.698;2023-03-14T13:32:27;10.50;99.90
70076;DHT22;63241;51.056;3.698;2023-03-14T13:34:55;10.90;99.90
70076;DHT22;63241;51.056;3.698;2023-03-14T13:37:23;11.20;99.90
70076;DHT22;63241;51.056;3.698;2023-03-14T13:39:56;11.30;99.90
70076;DHT22;63241;51.056;3.698;2023-03-14T13:42:27;11.60;99.90
70076;DHT22;63241;51.056;3.698;2023-03-14T13:44:56;11.80;99.90
70076;DHT22;63241;51.056;3.698;2023-03-14T13:47:25;11.70;99.90
70076;DHT22;63241;51.056;3.698;2023-03-14T13:49:54;11.20;99.90
70076;DHT22;63241;51.056;3.698;2023-03-14T13:52:38;10.70;99.90
70076;DHT22;63241;51.056;3.698;2023-03-14T13:55:13;10.60;97.90
70076;DHT22;63241;51.056;3.698;2023-03-14T13:57:47;10.30;96.50
70076;DHT22;63241;51.056;3.698;2023-03-14T14:00:23;10.00;99.90
70076;DHT22;63241;51.056;3.698;2023-03-14T14:02:57;9.80;99.90
70076;DHT22;63241;51.056;3.698;2023-03-14T14:05:28;9.60;99.90
70076;DHT22;63241;51.056;3.698;2023-03-14T14:07:57;9.40;99.90
70076;DHT22;63241;51.056;3.698;2023-03-14T14:10:26;9.20;99.90
70076;DHT22;63241;51.056;3.698;2023-03-14T14:12:59;9.00;99.20
70076;DHT22;63241;51.056;3.698;2023-03-14T14:15:28;9.00;99.90
70076;DHT22;63241;51.056;3.698;2023-03-14T14:18:05;9.00;99.90
70076;DHT22;63241;51.056;3.698;2023-03-14T14:20:36;9.30;99.90
70076;DHT22;63241;51.056;3.698;2023-03-14T14:23:07;9.40;99.90
70076;DHT22;63241;51.056;3.698;2023-03-14T14:25:34;9.60;99.90
70076;DHT22;63241;51.056;3.698;2023-03-14T14:28:23;9.60;99.90
70076;DHT22;63241;51.056;3.698;2023-03-14T14:31:22;9.80;99.60
70076;DHT22;63241;51.056;3.698;2023-03-14T14:33:39;9.70;96.50
70076;DHT22;63241;51.056;3.698;2023-03-14T14:36:16;9.90;95.10
70076;DHT22;63241;51.056;3.698;2023-03-14T14:38:49;9.90;93.30
70076;DHT22;63241;51.056;3.698;2023-03-14T14:41:16;9.90;93.40
70076;DHT22;63241;51.056;3.698;2023-03-14T14:43:44;9.80;91.20
70076;DHT22;63241;51.056;3.698;2023-03-14T14:46:15;9.90;90.90
70076;DHT22;63241;51.056;3.698;2023-03-14T14:48:43;10.10;90.20
70076;DHT22;63241;51.056;3.698;2023-03-14T14:51:10;9.90;86.40
70076;DHT22;63241;51.056;3.698;2023-03-14T14:53:41;9.80;85.70
70076;DHT22;63241;51.056;3.698;2023-03-14T14:56:20;9.90;89.90
70076;DHT22;63241;51.056;3.698;2023-03-14T14:58:49;9.90;89.40
70076;DHT22;63241;51.056;3.698;2023-03-14T15:01:19;9.90;90.80
70076;DHT22;63241;51.056;3.698;2023-03-14T15:03:52;9.90;89.90
70076;DHT22;63241;51.056;3.698;2023-03-14T15:06:20;9.90;87.20
70076;DHT22;63241;51.056;3.698;2023-03-14T15:08:48;9.90;84.90
70076;DHT22;63241;51.056;3.698;2023-03-14T15:11:18;9.80;87.60
70076;DHT22;63241;51.056;3.698;2023-03-14T15:13:46;9.80;87.10
70076;DHT22;63241;51.056;3.698;2023-03-14T15:16:17;9.60;84.60
70076;DHT22;63241;51.056;3.698;2023-03-14T15:18:48;9.50;86.00
70076;DHT22;63241;51.056;3.698;2023-03-14T15:21:15;9.60;88.10
70076;DHT22;63241;51.056;3.698;2023-03-14T15:23:43;9.70;89.20
70076;DHT22;63241;51.056;3.698;2023-03-14T15:26:18;9.70;89.40
70076;DHT22;63241;51.056;3.698;2023-03-14T15:28:41;9.80;88.50
70076;DHT22;63241;51.056;3.698;2023-03-14T15:31:10;9.90;87.60
70076;DHT22;63241;51.056;3.698;2023-03-14T15:33:38;9.80;87.50
70076;DHT22;63241;51.056;3.698;2023-03-14T15:36:23;9.80;88.90
70076;DHT22;63241;51.056;3.698;2023-03-14T15:38:52;10.00;88.60
70076;DHT22;63241;51.056;3.698;2023-03-14T15:41:21;10.00;85.20
70076;DHT22;63241;51.056;3.698;2023-03-14T15:43:49;10.00;87.60
70076;DHT22;63241;51.056;3.698;2023-03-14T15:46:17;10.10;89.60
70076;DHT22;63241;51.056;3.698;2023-03-14T15:48:45;10.00;89.20
70076;DHT22;63241;51.056;3.698;2023-03-14T15:51:13;10.10;89.50
70076;DHT22;63241;51.056;3.698;2023-03-14T15:53:41;10.10;87.60
70076;DHT22;63241;51.056;3.698;2023-03-14T15:56:15;10.20;89.40
70076;DHT22;63241;51.056;3.698;2023-03-14T15:58:44;10.30;85.10
70076;DHT22;63241;51.056;3.698;2023-03-14T16:01:16;10.30;85.80
70076;DHT22;63241;51.056;3.698;2023-03-14T16:03:44;10.30;81.80
70076;DHT22;63241;51.056;3.698;2023-03-14T16:06:13;10.40;82.00
70076;DHT22;63241;51.056;3.698;2023-03-14T16:08:41;10.30;81.20
70076;DHT22;63241;51.056;3.698;2023-03-14T16:11:11;10.20;81.40
